createdAt,value
2023-01-30T00:04:38.863Z,101678.69
2023-01-30T00:09:36.690Z,101684.75
2023-01-30T00:14:34.541Z,101672.69
2023-01-30T00:19:33.777Z,101673.47
2023-01-30T00:24:31.757Z,101679.69
2023-01-30T00:29:29.644Z,101675.38
2023-01-30T00:34:27.454Z,101673.66
2023-01-30T00:39:26.665Z,101673.69
2023-01-30T00:44:43.275Z,101666.88
2023-01-30T00:49:42.383Z,101666.09
2023-01-30T00:54:41.579Z,101654.94
2023-01-30T00:59:39.376Z,101650.69
2023-01-30T01:04:43.446Z,101647.31
2023-01-30T01:09:43.597Z,101644.75
2023-01-30T01:14:41.485Z,101632.81
2023-01-30T01:19:39.588Z,101636.28
2023-01-30T01:24:37.749Z,101624.28
2023-01-30T01:29:37.044Z,101630.28
2023-01-30T01:34:34.893Z,101621.78
2023-01-30T01:39:46.625Z,101623.47
2023-01-30T01:45:02.589Z,101620.06
2023-01-30T01:50:02.241Z,101614.97
2023-01-30T01:55:02.098Z,101607.31
2023-01-30T02:00:05.747Z,101606.41
2023-01-30T02:05:14.087Z,101603.03
2023-01-30T02:10:14.690Z,101599.63
2023-01-30T02:15:12.757Z,101599.63
2023-01-30T02:20:17.940Z,101603.06
2023-01-30T02:25:34.376Z,101593.59
2023-01-30T02:31:02.830Z,101591.91
2023-01-30T02:36:07.335Z,101589.31
2023-01-30T02:41:12.682Z,101588.41
2023-01-30T02:46:12.421Z,101586.75
2023-01-30T02:51:15.007Z,101590.19
2023-01-30T02:56:12.847Z,101587.59
2023-01-30T03:01:30.592Z,101581.59
2023-01-30T03:06:40.969Z,101585.88
2023-01-30T03:11:44.869Z,101589.31
2023-01-30T03:16:43.006Z,101586.75
2023-01-30T03:21:45.447Z,101589.31
2023-01-30T03:26:46.539Z,101589.31
2023-01-30T03:31:45.032Z,101573.91
2023-01-30T03:36:44.334Z,101582.38
2023-01-30T03:41:42.204Z,101585.03
2023-01-30T03:46:40.493Z,101582.44
2023-01-30T03:51:38.519Z,101573.91
2023-01-30T03:56:37.778Z,101569.59
2023-01-30T04:01:35.869Z,101565.31
2023-01-30T04:06:36.406Z,101563.63
2023-01-30T04:11:37.457Z,101554.19
2023-01-30T04:16:35.423Z,101551.63
2023-01-30T04:21:42.426Z,101552.50
2023-01-30T04:26:41.885Z,101551.66
2023-01-30T04:31:40.510Z,101555.03
2023-01-30T04:36:53.830Z,101549.91
2023-01-30T04:41:53.321Z,101546.50
2023-01-30T04:46:51.191Z,101550.75
2023-01-30T04:51:49.138Z,101556.78
2023-01-30T04:56:46.953Z,101556.75
2023-01-30T05:01:46.242Z,101553.31
2023-01-30T05:06:45.473Z,101545.63
2023-01-30T05:11:43.333Z,101551.59
2023-01-30T05:16:41.174Z,101558.47
2023-01-30T05:21:40.400Z,101554.19
2023-01-30T05:26:38.491Z,101559.34
2023-01-30T05:31:36.349Z,101555.88
2023-01-30T05:36:34.208Z,101557.63
2023-01-30T05:41:33.479Z,101550.78
2023-01-30T05:46:31.343Z,101548.19
2023-01-30T05:51:29.311Z,101557.59
2023-01-30T05:56:27.136Z,101555.88
2023-01-30T06:01:26.851Z,101553.31
2023-01-30T06:06:24.982Z,101549.88
2023-01-30T06:11:23.311Z,101542.19
2023-01-30T06:16:21.620Z,101543.03
2023-01-30T06:21:20.905Z,101549.91
2023-01-30T06:26:18.733Z,101553.34
2023-01-30T06:31:16.962Z,101539.66
2023-01-30T06:36:14.805Z,101545.59
2023-01-30T06:41:13.992Z,101542.19
2023-01-30T06:46:11.896Z,101543.91
2023-01-30T06:51:09.790Z,101548.22
2023-01-30T06:56:08.003Z,101546.47
2023-01-30T07:01:07.263Z,101555.94
2023-01-30T07:06:05.090Z,101560.19
2023-01-30T07:11:03.021Z,101561.91
2023-01-30T07:16:00.819Z,101561.91
2023-01-30T07:21:00.112Z,101571.34
2023-01-30T07:25:57.993Z,101573.03
2023-01-30T07:30:55.869Z,101562.75
2023-01-30T07:35:54.382Z,101565.34
2023-01-30T07:40:53.555Z,101569.59
2023-01-30T07:45:51.419Z,101559.31
2023-01-30T07:50:49.286Z,101556.72
2023-01-30T07:55:47.299Z,101553.28
2023-01-30T08:00:46.740Z,101540.44
2023-01-30T08:05:46.891Z,101547.25
2023-01-30T08:10:44.982Z,101546.34
2023-01-30T08:15:42.830Z,101546.38
2023-01-30T08:20:42.838Z,101551.50
2023-01-30T08:25:40.639Z,101546.28
2023-01-30T08:30:38.508Z,101546.34
2023-01-30T08:35:36.343Z,101541.09
2023-01-30T08:40:35.556Z,101531.59
2023-01-30T08:45:33.670Z,101528.13
2023-01-30T08:50:31.612Z,101525.59
2023-01-30T08:55:29.426Z,101521.38
2023-01-30T09:00:29.451Z,101520.56
2023-01-30T09:05:27.252Z,101513.53
2023-01-30T09:10:25.155Z,101506.66
2023-01-30T09:15:23.032Z,101514.34
2023-01-30T09:20:22.294Z,101498.94
2023-01-30T09:25:20.142Z,101496.31
2023-01-30T09:30:18.917Z,101492.69
2023-01-30T09:35:16.931Z,101489.44
2023-01-30T09:40:17.576Z,101486.16
2023-01-30T09:45:25.701Z,101479.22
2023-01-30T09:50:32.039Z,101474.78
2023-01-30T09:55:32.610Z,101462.81
2023-01-30T10:00:34.564Z,101458.38
2023-01-30T10:05:35.916Z,101443.69
2023-01-30T10:10:42.376Z,101440.41
2023-01-30T10:15:47.781Z,101436.25
2023-01-30T10:20:51.190Z,101420.13
2023-01-30T10:25:52.082Z,101411.53
2023-01-30T10:30:52.959Z,101407.34
2023-01-30T10:35:54.100Z,101393.81
2023-01-30T10:40:59.398Z,101400.75
2023-01-30T10:46:01.029Z,101386.16
2023-01-30T10:51:00.748Z,101380.19
2023-01-30T10:56:03.718Z,101370.00
2023-01-30T11:01:02.299Z,101363.19
2023-01-30T11:06:02.360Z,101350.38
2023-01-30T11:11:02.307Z,101345.97
2023-01-30T11:16:01.176Z,101332.19
2023-01-30T11:21:03.078Z,101328.81
2023-01-30T11:26:11.308Z,101310.63
2023-01-30T11:31:21.352Z,101302.91
2023-01-30T11:36:26.086Z,101295.38
2023-01-30T11:41:25.412Z,101305.75
2023-01-30T11:46:23.220Z,101299.78
2023-01-30T11:51:22.236Z,101292.84
2023-01-30T11:56:23.576Z,101280.91
2023-01-30T12:01:23.033Z,101272.28
2023-01-30T12:06:24.614Z,101261.25
2023-01-30T12:11:30.415Z,101255.09
2023-01-30T12:16:38.701Z,101244.03
2023-01-30T12:21:40.267Z,101249.31
2023-01-30T12:26:41.994Z,101242.50
2023-01-30T12:31:45.196Z,101238.09
2023-01-30T12:36:45.856Z,101229.53
2023-01-30T12:41:48.298Z,101227.84
2023-01-30T12:46:53.539Z,101220.91
2023-01-30T12:52:00.980Z,101214.81
2023-01-30T12:57:04.223Z,101204.38
2023-01-30T13:02:20.012Z,101192.28
2023-01-30T13:07:25.657Z,101178.50
2023-01-30T13:12:28.524Z,101181.13
2023-01-30T13:17:39.523Z,101169.19
2023-01-30T13:22:41.414Z,101175.09
2023-01-30T13:27:41.495Z,101174.91
2023-01-30T13:32:41.732Z,101170.88
2023-01-30T13:37:41.093Z,101148.34
2023-01-30T13:42:42.427Z,101153.53
2023-01-30T13:47:45.857Z,101147.50
2023-01-30T13:52:48.427Z,101138.00
2023-01-30T13:57:50.493Z,101136.44
2023-01-30T14:03:06.959Z,101132.97
2023-01-30T14:08:15.145Z,101131.28
2023-01-30T14:13:14.922Z,101120.38
2023-01-30T14:18:22.585Z,101120.25
2023-01-30T14:23:23.641Z,101122.94
2023-01-30T14:28:55.353Z,101117.59
2023-01-30T14:33:53.193Z,101108.13
2023-01-30T14:38:58.667Z,101093.44
2023-01-30T14:43:56.484Z,101104.78
2023-01-30T14:48:56.982Z,101088.59
2023-01-30T14:53:56.271Z,101085.06
2023-01-30T14:58:59.653Z,101082.50
2023-01-30T15:04:06.169Z,101074.00
2023-01-30T15:09:04.032Z,101068.03
2023-01-30T15:14:08.795Z,101067.06
2023-01-30T15:19:12.518Z,101057.53
2023-01-30T15:24:24.013Z,101055.91
2023-01-30T15:29:41.056Z,101055.84
2023-01-30T15:34:41.893Z,101047.44
2023-01-30T15:39:40.239Z,101031.97
2023-01-30T15:44:48.638Z,101040.75
2023-01-30T15:49:55.544Z,101033.13
2023-01-30T15:54:54.538Z,101032.16
2023-01-30T15:59:54.331Z,101033.75
2023-01-30T16:05:05.006Z,101028.53
2023-01-30T16:10:08.206Z,101009.00
2023-01-30T16:15:19.573Z,101011.78
2023-01-30T16:20:18.482Z,101008.59
2023-01-30T16:25:20.472Z,100996.22
2023-01-30T16:30:27.501Z,100991.16
2023-01-30T16:35:31.039Z,100993.00
2023-01-30T16:40:30.989Z,100996.47
2023-01-30T16:46:02.088Z,100988.06
2023-01-30T16:51:13.452Z,100989.94
2023-01-30T16:56:17.046Z,100983.19
2023-01-30T17:01:15.131Z,100972.97
2023-01-30T17:06:21.180Z,100976.53
2023-01-30T17:11:33.834Z,100965.44
2023-01-30T17:16:33.581Z,100966.41
2023-01-30T17:21:36.448Z,100965.50
2023-01-30T17:26:34.850Z,100955.34
2023-01-30T17:31:32.815Z,100958.00
2023-01-30T17:36:32.217Z,100959.69
2023-01-30T17:41:33.547Z,100949.41
2023-01-30T17:46:33.686Z,100940.91
2023-01-30T17:51:32.950Z,100936.66
2023-01-30T17:56:32.473Z,100923.88
2023-01-30T18:01:30.382Z,100924.75
2023-01-30T18:06:29.875Z,100919.63
2023-01-30T18:11:29.123Z,100915.41
2023-01-30T18:16:30.880Z,100908.56
2023-01-30T18:21:28.727Z,100906.00
2023-01-30T18:26:27.072Z,100902.56
2023-01-30T18:31:26.991Z,100896.66
2023-01-30T18:36:25.097Z,100883.78
2023-01-30T18:41:23.908Z,100891.50
2023-01-30T18:46:21.774Z,100898.34
2023-01-30T18:51:22.004Z,100890.72
2023-01-30T18:56:20.706Z,100888.09
2023-01-30T19:01:19.734Z,100886.38
2023-01-30T19:06:19.358Z,100883.03
2023-01-30T19:11:38.841Z,100880.47
2023-01-30T19:16:37.650Z,100872.75
2023-01-30T19:21:36.635Z,100867.63
2023-01-30T19:26:35.991Z,100870.22
2023-01-30T19:31:34.253Z,100859.09
2023-01-30T19:36:33.533Z,100865.97
2023-01-30T19:41:32.721Z,100857.41
2023-01-30T19:46:32.042Z,100854.84
2023-01-30T19:51:30.884Z,100853.16
2023-01-30T19:56:29.666Z,100848.88
2023-01-30T20:01:29.861Z,100842.97
2023-01-30T20:06:30.921Z,100838.59
2023-01-30T20:11:29.580Z,100832.66
2023-01-30T20:16:29.512Z,100832.66
2023-01-30T20:21:28.294Z,100826.69
2023-01-30T20:26:32.651Z,100826.72
2023-01-30T20:31:31.522Z,100818.97
2023-01-30T20:36:29.472Z,100811.25
2023-01-30T20:41:27.659Z,100799.25
2023-01-30T20:46:28.216Z,100794.19
2023-01-30T20:51:27.268Z,100782.19
2023-01-30T20:56:27.062Z,100776.19
2023-01-30T21:01:26.370Z,100783.78
2023-01-30T21:06:41.309Z,100774.25
2023-01-30T21:11:42.769Z,100764.00
2023-01-30T21:16:42.059Z,100770.03
2023-01-30T21:21:41.073Z,100763.19
2023-01-30T21:26:40.264Z,100764.63
2023-01-30T21:31:39.689Z,100762.94
2023-01-30T21:36:39.459Z,100757.75
2023-01-30T21:41:55.115Z,100751.97
2023-01-30T21:46:52.926Z,100748.72
2023-01-30T21:51:52.299Z,100740.13
2023-01-30T21:56:50.678Z,100739.31
2023-01-30T22:01:48.695Z,100735.75
2023-01-30T22:06:46.542Z,100742.53
2023-01-30T22:11:46.228Z,100740.75
2023-01-30T22:16:44.075Z,100731.38
2023-01-30T22:21:41.869Z,100728.66
2023-01-30T22:26:39.978Z,100739.66
2023-01-30T22:31:40.639Z,100735.38
2023-01-30T22:36:38.785Z,100732.63
2023-01-30T22:41:37.132Z,100725.88
2023-01-30T22:46:37.492Z,100720.78
2023-01-30T22:51:37.639Z,100720.00
2023-01-30T22:56:38.377Z,100716.63
2023-01-30T23:01:37.181Z,100715.81
2023-01-30T23:06:36.892Z,100703.75
2023-01-30T23:11:35.756Z,100709.78
2023-01-30T23:16:35.296Z,100702.16
2023-01-30T23:21:36.107Z,100708.97
2023-01-30T23:26:36.239Z,100697.91
2023-01-30T23:31:34.653Z,100697.88
2023-01-30T23:36:32.535Z,100686.91
2023-01-30T23:41:31.088Z,100679.94
2023-01-30T23:46:31.258Z,100676.44
2023-01-30T23:51:29.794Z,100679.09
2023-01-30T23:56:33.038Z,100686.00
